sensor_id;sensor_type;location;lat;lon;timestamp;temperature;humidity
75799;DHT22;70933;44.692;37.776;2023-11-19T00:00:19;21.17;37.33
75799;DHT22;70933;44.692;37.776;2023-11-19T00:01:21;21.18;37.55
75799;DHT22;70933;44.692;37.776;2023-11-19T00:02:22;21.18;37.51
75799;DHT22;70933;44.692;37.776;2023-11-19T00:03:24;21.16;37.85
75799;DHT22;70933;44.692;37.776;2023-11-19T00:04:25;21.14;37.97
75799;DHT22;70933;44.692;37.776;2023-11-19T00:05:27;21.11;38.04
75799;DHT22;70933;44.692;37.776;2023-11-19T00:06:31;21.14;37.92
75799;DHT22;70933;44.692;37.776;2023-11-19T00:07:33;21.14;38.19
75799;DHT22;70933;44.692;37.776;2023-11-19T00:08:34;21.16;38.04
75799;DHT22;70933;44.692;37.776;2023-11-19T00:09:36;21.15;38.40
75799;DHT22;70933;44.692;37.776;2023-11-19T00:10:38;21.14;38.34
75799;DHT22;70933;44.692;37.776;2023-11-19T00:11:39;21.13;38.60
75799;DHT22;70933;44.692;37.776;2023-11-19T00:12:43;21.17;38.36
75799;DHT22;70933;44.692;37.776;2023-11-19T00:13:45;21.16;38.59
75799;DHT22;70933;44.692;37.776;2023-11-19T00:14:47;21.16;38.32
75799;DHT22;70933;44.692;37.776;2023-11-19T00:15:48;21.18;38.49
75799;DHT22;70933;44.692;37.776;2023-11-19T00:16:50;21.18;38.40
75799;DHT22;70933;44.692;37.776;2023-11-19T00:17:52;21.19;38.61
75799;DHT22;70933;44.692;37.776;2023-11-19T00:18:54;21.21;38.60
75799;DHT22;70933;44.692;37.776;2023-11-19T00:19:55;21.22;38.53
75799;DHT22;70933;44.692;37.776;2023-11-19T00:20:56;21.21;38.45
75799;DHT22;70933;44.692;37.776;2023-11-19T00:21:58;21.23;38.67
75799;DHT22;70933;44.692;37.776;2023-11-19T00:23:03;21.23;38.61
75799;DHT22;70933;44.692;37.776;2023-11-19T00:24:05;21.22;38.65
75799;DHT22;70933;44.692;37.776;2023-11-19T00:25:07;21.23;38.57
75799;DHT22;70933;44.692;37.776;2023-11-19T00:26:09;21.25;38.53
75799;DHT22;70933;44.692;37.776;2023-11-19T00:27:12;21.25;38.83
75799;DHT22;70933;44.692;37.776;2023-11-19T00:28:13;21.24;38.91
75799;DHT22;70933;44.692;37.776;2023-11-19T00:29:15;21.22;38.95
75799;DHT22;70933;44.692;37.776;2023-11-19T00:30:17;21.21;39.20
75799;DHT22;70933;44.692;37.776;2023-11-19T00:31:18;21.19;39.12
75799;DHT22;70933;44.692;37.776;2023-11-19T00:32:20;21.15;39.15
75799;DHT22;70933;44.692;37.776;2023-11-19T00:33:21;21.15;39.36
75799;DHT22;70933;44.692;37.776;2023-11-19T00:34:23;21.15;39.45
75799;DHT22;70933;44.692;37.776;2023-11-19T00:35:24;21.14;39.27
75799;DHT22;70933;44.692;37.776;2023-11-19T00:36:26;21.14;39.47
75799;DHT22;70933;44.692;37.776;2023-11-19T00:37:27;21.15;39.31
75799;DHT22;70933;44.692;37.776;2023-11-19T00:38:29;21.16;39.52
75799;DHT22;70933;44.692;37.776;2023-11-19T00:39:30;21.16;39.39
75799;DHT22;70933;44.692;37.776;2023-11-19T00:40:32;21.16;39.52
75799;DHT22;70933;44.692;37.776;2023-11-19T00:41:33;21.16;39.35
75799;DHT22;70933;44.692;37.776;2023-11-19T00:42:35;21.18;39.36
75799;DHT22;70933;44.692;37.776;2023-11-19T00:43:36;21.19;39.41
75799;DHT22;70933;44.692;37.776;2023-11-19T00:44:38;21.20;39.72
75799;DHT22;70933;44.692;37.776;2023-11-19T00:45:40;21.19;39.44
75799;DHT22;70933;44.692;37.776;2023-11-19T00:46:41;21.21;39.45
75799;DHT22;70933;44.692;37.776;2023-11-19T00:47:43;21.20;39.62
75799;DHT22;70933;44.692;37.776;2023-11-19T00:48:44;21.19;39.80
75799;DHT22;70933;44.692;37.776;2023-11-19T00:49:48;21.20;39.79
75799;DHT22;70933;44.692;37.776;2023-11-19T00:50:49;21.20;39.69
75799;DHT22;70933;44.692;37.776;2023-11-19T00:51:51;21.19;39.72
75799;DHT22;70933;44.692;37.776;2023-11-19T00:52:53;21.22;39.67
75799;DHT22;70933;44.692;37.776;2023-11-19T00:53:54;21.21;39.84
75799;DHT22;70933;44.692;37.776;2023-11-19T00:54:56;21.21;39.65
75799;DHT22;70933;44.692;37.776;2023-11-19T00:55:58;21.24;39.60
75799;DHT22;70933;44.692;37.776;2023-11-19T00:56:59;21.25;39.57
75799;DHT22;70933;44.692;37.776;2023-11-19T00:58:02;21.28;39.39
75799;DHT22;70933;44.692;37.776;2023-11-19T00:59:04;21.29;39.60
75799;DHT22;70933;44.692;37.776;2023-11-19T01:00:06;21.28;39.75
75799;DHT22;70933;44.692;37.776;2023-11-19T01:01:16;21.27;39.80
75799;DHT22;70933;44.692;37.776;2023-11-19T01:02:18;21.24;39.82
75799;DHT22;70933;44.692;37.776;2023-11-19T01:03:19;21.23;39.85
75799;DHT22;70933;44.692;37.776;2023-11-19T01:04:21;21.22;39.55
75799;DHT22;70933;44.692;37.776;2023-11-19T01:05:22;21.24;39.62
75799;DHT22;70933;44.692;37.776;2023-11-19T01:06:30;21.22;39.66
75799;DHT22;70933;44.692;37.776;2023-11-19T01:07:32;21.21;39.79
75799;DHT22;70933;44.692;37.776;2023-11-19T01:08:33;21.22;39.87
75799;DHT22;70933;44.692;37.776;2023-11-19T01:09:36;21.20;39.88
75799;DHT22;70933;44.692;37.776;2023-11-19T01:10:39;21.20;39.82
75799;DHT22;70933;44.692;37.776;2023-11-19T01:11:40;21.20;39.84
75799;DHT22;70933;44.692;37.776;2023-11-19T01:12:42;21.21;39.87
75799;DHT22;70933;44.692;37.776;2023-11-19T01:13:44;21.22;40.00
75799;DHT22;70933;44.692;37.776;2023-11-19T01:14:46;21.21;39.94
75799;DHT22;70933;44.692;37.776;2023-11-19T01:15:47;21.20;40.13
75799;DHT22;70933;44.692;37.776;2023-11-19T01:16:49;21.16;40.30
75799;DHT22;70933;44.692;37.776;2023-11-19T01:17:50;21.15;40.40
75799;DHT22;70933;44.692;37.776;2023-11-19T01:18:52;21.13;40.30
75799;DHT22;70933;44.692;37.776;2023-11-19T01:19:54;21.14;40.37
75799;DHT22;70933;44.692;37.776;2023-11-19T01:20:56;21.11;40.48
75799;DHT22;70933;44.692;37.776;2023-11-19T01:21:57;21.14;40.30
75799;DHT22;70933;44.692;37.776;2023-11-19T01:22:59;21.15;40.43
75799;DHT22;70933;44.692;37.776;2023-11-19T01:24:00;21.16;40.41
75799;DHT22;70933;44.692;37.776;2023-11-19T01:25:02;21.17;40.54
75799;DHT22;70933;44.692;37.776;2023-11-19T01:26:04;21.16;40.83
75799;DHT22;70933;44.692;37.776;2023-11-19T01:27:06;21.15;40.86
75799;DHT22;70933;44.692;37.776;2023-11-19T01:28:08;21.14;40.72
75799;DHT22;70933;44.692;37.776;2023-11-19T01:29:09;21.15;40.82
75799;DHT22;70933;44.692;37.776;2023-11-19T01:30:11;21.11;40.85
75799;DHT22;70933;44.692;37.776;2023-11-19T01:31:16;21.13;40.86
75799;DHT22;70933;44.692;37.776;2023-11-19T01:32:17;21.11;40.78
75799;DHT22;70933;44.692;37.776;2023-11-19T01:33:19;21.09;40.81
75799;DHT22;70933;44.692;37.776;2023-11-19T01:34:20;21.07;40.83
75799;DHT22;70933;44.692;37.776;2023-11-19T01:35:22;21.03;40.77
75799;DHT22;70933;44.692;37.776;2023-11-19T01:36:24;21.05;40.85
75799;DHT22;70933;44.692;37.776;2023-11-19T01:37:26;21.05;40.91
75799;DHT22;70933;44.692;37.776;2023-11-19T01:38:27;21.05;41.06
75799;DHT22;70933;44.692;37.776;2023-11-19T01:39:29;21.05;41.13
75799;DHT22;70933;44.692;37.776;2023-11-19T01:40:30;21.05;41.00
75799;DHT22;70933;44.692;37.776;2023-11-19T01:41:35;21.06;40.97
75799;DHT22;70933;44.692;37.776;2023-11-19T01:42:38;21.04;40.88
75799;DHT22;70933;44.692;37.776;2023-11-19T01:43:40;21.03;40.87
75799;DHT22;70933;44.692;37.776;2023-11-19T01:44:56;21.02;40.96
75799;DHT22;70933;44.692;37.776;2023-11-19T01:45:59;20.99;41.30
75799;DHT22;70933;44.692;37.776;2023-11-19T01:47:01;20.98;41.10
75799;DHT22;70933;44.692;37.776;2023-11-19T01:48:04;20.95;40.98
75799;DHT22;70933;44.692;37.776;2023-11-19T01:49:07;20.90;40.94
75799;DHT22;70933;44.692;37.776;2023-11-19T01:50:09;20.90;40.97
75799;DHT22;70933;44.692;37.776;2023-11-19T01:51:12;20.86;40.95
75799;DHT22;70933;44.692;37.776;2023-11-19T01:52:14;20.85;40.97
75799;DHT22;70933;44.692;37.776;2023-11-19T01:53:16;20.83;41.02
75799;DHT22;70933;44.692;37.776;2023-11-19T01:54:18;20.81;40.98
75799;DHT22;70933;44.692;37.776;2023-11-19T01:55:20;20.79;40.96
75799;DHT22;70933;44.692;37.776;2023-11-19T01:56:23;20.75;41.04
75799;DHT22;70933;44.692;37.776;2023-11-19T01:57:26;20.74;41.22
75799;DHT22;70933;44.692;37.776;2023-11-19T01:58:28;20.74;40.94
75799;DHT22;70933;44.692;37.776;2023-11-19T01:59:31;20.71;41.00
75799;DHT22;70933;44.692;37.776;2023-11-19T02:00:33;20.72;41.06
75799;DHT22;70933;44.692;37.776;2023-11-19T02:01:35;20.68;40.97
75799;DHT22;70933;44.692;37.776;2023-11-19T02:02:41;20.68;41.10
75799;DHT22;70933;44.692;37.776;2023-11-19T02:03:43;20.66;41.14
75799;DHT22;70933;44.692;37.776;2023-11-19T02:04:49;20.65;41.35
75799;DHT22;70933;44.692;37.776;2023-11-19T02:05:51;20.62;41.24
75799;DHT22;70933;44.692;37.776;2023-11-19T02:06:56;20.61;41.27
75799;DHT22;70933;44.692;37.776;2023-11-19T02:07:59;20.61;41.34
75799;DHT22;70933;44.692;37.776;2023-11-19T02:09:00;20.62;41.31
75799;DHT22;70933;44.692;37.776;2023-11-19T02:10:02;20.61;41.23
75799;DHT22;70933;44.692;37.776;2023-11-19T02:11:07;20.62;41.20
75799;DHT22;70933;44.692;37.776;2023-11-19T02:12:10;20.61;41.07
75799;DHT22;70933;44.692;37.776;2023-11-19T02:13:15;20.62;41.16
75799;DHT22;70933;44.692;37.776;2023-11-19T02:14:17;20.61;41.04
75799;DHT22;70933;44.692;37.776;2023-11-19T02:15:20;20.60;41.17
75799;DHT22;70933;44.692;37.776;2023-11-19T02:16:21;20.58;41.08
75799;DHT22;70933;44.692;37.776;2023-11-19T02:17:27;20.59;41.16
75799;DHT22;70933;44.692;37.776;2023-11-19T02:18:30;20.60;41.23
75799;DHT22;70933;44.692;37.776;2023-11-19T02:19:33;20.61;41.07
75799;DHT22;70933;44.692;37.776;2023-11-19T02:20:35;20.59;41.17
75799;DHT22;70933;44.692;37.776;2023-11-19T02:21:37;20.58;41.21
75799;DHT22;70933;44.692;37.776;2023-11-19T02:22:39;20.57;41.21
75799;DHT22;70933;44.692;37.776;2023-11-19T02:23:41;20.60;41.24
75799;DHT22;70933;44.692;37.776;2023-11-19T02:24:44;20.61;41.24
75799;DHT22;70933;44.692;37.776;2023-11-19T02:26:05;20.64;41.11
75799;DHT22;70933;44.692;37.776;2023-11-19T02:27:16;20.66;41.06
75799;DHT22;70933;44.692;37.776;2023-11-19T02:28:21;20.66;41.01
75799;DHT22;70933;44.692;37.776;2023-11-19T02:29:23;20.68;40.98
75799;DHT22;70933;44.692;37.776;2023-11-19T02:30:25;20.70;41.04
75799;DHT22;70933;44.692;37.776;2023-11-19T02:31:30;20.71;41.04
75799;DHT22;70933;44.692;37.776;2023-11-19T02:32:32;20.75;41.04
75799;DHT22;70933;44.692;37.776;2023-11-19T02:33:34;20.77;40.97
75799;DHT22;70933;44.692;37.776;2023-11-19T02:34:35;20.79;41.04
75799;DHT22;70933;44.692;37.776;2023-11-19T02:35:37;20.80;40.94
75799;DHT22;70933;44.692;37.776;2023-11-19T02:36:39;20.79;40.87
75799;DHT22;70933;44.692;37.776;2023-11-19T02:37:42;20.77;41.00
75799;DHT22;70933;44.692;37.776;2023-11-19T02:38:46;20.74;40.92
75799;DHT22;70933;44.692;37.776;2023-11-19T02:39:48;20.75;41.00
75799;DHT22;70933;44.692;37.776;2023-11-19T02:40:50;20.75;40.93
75799;DHT22;70933;44.692;37.776;2023-11-19T02:41:52;20.75;41.04
75799;DHT22;70933;44.692;37.776;2023-11-19T02:42:54;20.72;41.04
75799;DHT22;70933;44.692;37.776;2023-11-19T02:43:57;20.70;41.04
75799;DHT22;70933;44.692;37.776;2023-11-19T02:44:59;20.70;40.97
75799;DHT22;70933;44.692;37.776;2023-11-19T02:46:04;20.70;41.13
75799;DHT22;70933;44.692;37.776;2023-11-19T02:47:11;20.69;41.14
75799;DHT22;70933;44.692;37.776;2023-11-19T02:48:12;20.68;41.20
75799;DHT22;70933;44.692;37.776;2023-11-19T02:49:15;20.66;40.94
75799;DHT22;70933;44.692;37.776;2023-11-19T02:50:18;20.66;41.03
75799;DHT22;70933;44.692;37.776;2023-11-19T02:51:26;20.65;41.02
75799;DHT22;70933;44.692;37.776;2023-11-19T02:52:28;20.64;41.23
75799;DHT22;70933;44.692;37.776;2023-11-19T02:53:31;20.64;41.31
75799;DHT22;70933;44.692;37.776;2023-11-19T02:54:32;20.68;41.20
75799;DHT22;70933;44.692;37.776;2023-11-19T02:55:36;20.65;41.09
75799;DHT22;70933;44.692;37.776;2023-11-19T02:56:44;20.66;41.10
75799;DHT22;70933;44.692;37.776;2023-11-19T02:57:50;20.66;41.13
75799;DHT22;70933;44.692;37.776;2023-11-19T02:58:52;20.65;41.05
75799;DHT22;70933;44.692;37.776;2023-11-19T02:59:54;20.65;41.03
75799;DHT22;70933;44.692;37.776;2023-11-19T03:00:57;20.66;41.02
75799;DHT22;70933;44.692;37.776;2023-11-19T03:01:59;20.68;41.10
75799;DHT22;70933;44.692;37.776;2023-11-19T03:03:01;20.66;41.10
75799;DHT22;70933;44.692;37.776;2023-11-19T03:04:11;20.69;41.07
75799;DHT22;70933;44.692;37.776;2023-11-19T03:05:16;20.71;41.07
75799;DHT22;70933;44.692;37.776;2023-11-19T03:06:18;20.71;41.16
75799;DHT22;70933;44.692;37.776;2023-11-19T03:07:20;20.70;40.97
75799;DHT22;70933;44.692;37.776;2023-11-19T03:08:21;20.66;41.02
75799;DHT22;70933;44.692;37.776;2023-11-19T03:09:23;20.66;41.04
75799;DHT22;70933;44.692;37.776;2023-11-19T03:10:25;20.65;40.97
75799;DHT22;70933;44.692;37.776;2023-11-19T03:11:27;20.63;40.91
75799;DHT22;70933;44.692;37.776;2023-11-19T03:12:28;20.62;40.91
75799;DHT22;70933;44.692;37.776;2023-11-19T03:13:29;20.60;40.89
75799;DHT22;70933;44.692;37.776;2023-11-19T03:14:33;20.62;40.97
75799;DHT22;70933;44.692;37.776;2023-11-19T03:15:35;20.61;40.98
75799;DHT22;70933;44.692;37.776;2023-11-19T03:16:37;20.66;40.91
75799;DHT22;70933;44.692;37.776;2023-11-19T03:17:39;20.71;40.82
75799;DHT22;70933;44.692;37.776;2023-11-19T03:18:41;20.75;40.66
75799;DHT22;70933;44.692;37.776;2023-11-19T03:19:43;20.78;40.70
75799;DHT22;70933;44.692;37.776;2023-11-19T03:20:46;20.80;40.69
75799;DHT22;70933;44.692;37.776;2023-11-19T03:21:48;20.81;40.60
75799;DHT22;70933;44.692;37.776;2023-11-19T03:22:49;20.83;40.60
75799;DHT22;70933;44.692;37.776;2023-11-19T03:23:52;20.81;40.48
75799;DHT22;70933;44.692;37.776;2023-11-19T03:24:54;20.81;40.53
75799;DHT22;70933;44.692;37.776;2023-11-19T03:25:55;20.84;40.49
75799;DHT22;70933;44.692;37.776;2023-11-19T03:26:58;20.85;40.44
75799;DHT22;70933;44.692;37.776;2023-11-19T03:28:03;20.84;40.46
75799;DHT22;70933;44.692;37.776;2023-11-19T03:29:05;20.83;40.35
75799;DHT22;70933;44.692;37.776;2023-11-19T03:30:06;20.79;40.36
75799;DHT22;70933;44.692;37.776;2023-11-19T03:31:08;20.77;40.49
75799;DHT22;70933;44.692;37.776;2023-11-19T03:32:10;20.73;40.41
75799;DHT22;70933;44.692;37.776;2023-11-19T03:33:13;20.71;40.69
75799;DHT22;70933;44.692;37.776;2023-11-19T03:34:14;20.68;40.49
75799;DHT22;70933;44.692;37.776;2023-11-19T03:35:16;20.68;40.62
75799;DHT22;70933;44.692;37.776;2023-11-19T03:36:18;20.70;40.59
75799;DHT22;70933;44.692;37.776;2023-11-19T03:37:19;20.72;40.52
75799;DHT22;70933;44.692;37.776;2023-11-19T03:38:21;20.68;40.49
75799;DHT22;70933;44.692;37.776;2023-11-19T03:39:23;20.65;40.55
75799;DHT22;70933;44.692;37.776;2023-11-19T03:40:26;20.66;40.64
75799;DHT22;70933;44.692;37.776;2023-11-19T03:41:28;20.68;40.63
75799;DHT22;70933;44.692;37.776;2023-11-19T03:42:30;20.65;40.54
75799;DHT22;70933;44.692;37.776;2023-11-19T03:43:32;20.69;40.47
75799;DHT22;70933;44.692;37.776;2023-11-19T03:44:34;20.66;40.56
75799;DHT22;70933;44.692;37.776;2023-11-19T03:45:36;20.68;40.33
75799;DHT22;70933;44.692;37.776;2023-11-19T03:46:37;20.69;40.41
75799;DHT22;70933;44.692;37.776;2023-11-19T03:47:39;20.69;40.40
75799;DHT22;70933;44.692;37.776;2023-11-19T03:48:40;20.70;40.36
75799;DHT22;70933;44.692;37.776;2023-11-19T03:49:42;20.72;40.33
75799;DHT22;70933;44.692;37.776;2023-11-19T03:50:45;20.74;40.26
75799;DHT22;70933;44.692;37.776;2023-11-19T03:51:46;20.74;40.17
75799;DHT22;70933;44.692;37.776;2023-11-19T03:52:48;20.72;40.39
75799;DHT22;70933;44.692;37.776;2023-11-19T03:53:50;20.70;40.43
75799;DHT22;70933;44.692;37.776;2023-11-19T03:54:52;20.72;40.42
75799;DHT22;70933;44.692;37.776;2023-11-19T03:55:53;20.71;40.50
75799;DHT22;70933;44.692;37.776;2023-11-19T03:56:55;20.69;40.51
75799;DHT22;70933;44.692;37.776;2023-11-19T03:57:56;20.68;40.59
75799;DHT22;70933;44.692;37.776;2023-11-19T03:58:58;20.66;40.66
75799;DHT22;70933;44.692;37.776;2023-11-19T03:59:59;20.68;40.75
75799;DHT22;70933;44.692;37.776;2023-11-19T04:01:01;20.69;40.78
75799;DHT22;70933;44.692;37.776;2023-11-19T04:02:03;20.69;40.75
75799;DHT22;70933;44.692;37.776;2023-11-19T04:03:05;20.70;40.95
75799;DHT22;70933;44.692;37.776;2023-11-19T04:04:07;20.69;40.84
75799;DHT22;70933;44.692;37.776;2023-11-19T04:05:08;20.66;41.08
75799;DHT22;70933;44.692;37.776;2023-11-19T04:06:11;20.63;40.81
75799;DHT22;70933;44.692;37.776;2023-11-19T04:07:12;20.62;41.01
75799;DHT22;70933;44.692;37.776;2023-11-19T04:08:14;20.62;41.00
75799;DHT22;70933;44.692;37.776;2023-11-19T04:09:15;20.62;41.06
75799;DHT22;70933;44.692;37.776;2023-11-19T04:10:17;20.63;40.94
75799;DHT22;70933;44.692;37.776;2023-11-19T04:11:19;20.66;40.88
75799;DHT22;70933;44.692;37.776;2023-11-19T04:12:21;20.66;41.10
75799;DHT22;70933;44.692;37.776;2023-11-19T04:13:23;20.66;41.15
75799;DHT22;70933;44.692;37.776;2023-11-19T04:14:26;20.64;41.07
75799;DHT22;70933;44.692;37.776;2023-11-19T04:15:27;20.68;41.02
75799;DHT22;70933;44.692;37.776;2023-11-19T04:16:29;20.68;41.10
75799;DHT22;70933;44.692;37.776;2023-11-19T04:17:31;20.65;40.97
75799;DHT22;70933;44.692;37.776;2023-11-19T04:18:32;20.69;40.99
75799;DHT22;70933;44.692;37.776;2023-11-19T04:19:34;20.70;41.13
75799;DHT22;70933;44.692;37.776;2023-11-19T04:20:35;20.70;40.96
75799;DHT22;70933;44.692;37.776;2023-11-19T04:21:40;20.72;41.00
75799;DHT22;70933;44.692;37.776;2023-11-19T04:22:42;20.70;40.97
75799;DHT22;70933;44.692;37.776;2023-11-19T04:23:43;20.72;40.93
75799;DHT22;70933;44.692;37.776;2023-11-19T04:24:45;20.72;40.96
75799;DHT22;70933;44.692;37.776;2023-11-19T04:25:46;20.72;40.97
75799;DHT22;70933;44.692;37.776;2023-11-19T04:26:48;20.73;40.84
75799;DHT22;70933;44.692;37.776;2023-11-19T04:27:49;20.74;41.02
75799;DHT22;70933;44.692;37.776;2023-11-19T04:28:51;20.73;41.19
75799;DHT22;70933;44.692;37.776;2023-11-19T04:29:55;20.71;41.22
75799;DHT22;70933;44.692;37.776;2023-11-19T04:30:56;20.66;41.11
75799;DHT22;70933;44.692;37.776;2023-11-19T04:31:59;20.65;41.23
75799;DHT22;70933;44.692;37.776;2023-11-19T04:33:03;20.65;41.39
75799;DHT22;70933;44.692;37.776;2023-11-19T04:34:05;20.64;41.39
75799;DHT22;70933;44.692;37.776;2023-11-19T04:35:08;20.66;41.36
75799;DHT22;70933;44.692;37.776;2023-11-19T04:36:10;20.63;41.39
75799;DHT22;70933;44.692;37.776;2023-11-19T04:37:12;20.64;41.43
75799;DHT22;70933;44.692;37.776;2023-11-19T04:38:14;20.63;41.42
75799;DHT22;70933;44.692;37.776;2023-11-19T04:39:15;20.65;41.33
75799;DHT22;70933;44.692;37.776;2023-11-19T04:40:19;20.64;41.35
75799;DHT22;70933;44.692;37.776;2023-11-19T04:41:23;20.63;41.52
75799;DHT22;70933;44.692;37.776;2023-11-19T04:42:25;20.62;41.49
75799;DHT22;70933;44.692;37.776;2023-11-19T04:43:27;20.63;41.58
75799;DHT22;70933;44.692;37.776;2023-11-19T04:44:28;20.66;41.54
75799;DHT22;70933;44.692;37.776;2023-11-19T04:45:31;20.64;41.49
75799;DHT22;70933;44.692;37.776;2023-11-19T04:46:33;20.65;41.47
75799;DHT22;70933;44.692;37.776;2023-11-19T04:47:34;20.64;41.62
75799;DHT22;70933;44.692;37.776;2023-11-19T04:48:36;20.64;41.67
75799;DHT22;70933;44.692;37.776;2023-11-19T04:49:41;20.63;41.68
75799;DHT22;70933;44.692;37.776;2023-11-19T04:50:45;20.62;41.82
75799;DHT22;70933;44.692;37.776;2023-11-19T04:51:47;20.62;41.75
75799;DHT22;70933;44.692;37.776;2023-11-19T04:52:49;20.61;41.69
75799;DHT22;70933;44.692;37.776;2023-11-19T04:53:50;20.60;41.55
75799;DHT22;70933;44.692;37.776;2023-11-19T04:54:52;20.58;41.62
75799;DHT22;70933;44.692;37.776;2023-11-19T04:55:53;20.58;41.42
75799;DHT22;70933;44.692;37.776;2023-11-19T04:56:55;20.58;41.58
75799;DHT22;70933;44.692;37.776;2023-11-19T04:57:56;20.55;41.62
75799;DHT22;70933;44.692;37.776;2023-11-19T04:58:58;20.54;41.57
75799;DHT22;70933;44.692;37.776;2023-11-19T04:59:59;20.54;41.68
75799;DHT22;70933;44.692;37.776;2023-11-19T05:01:01;20.53;41.62
75799;DHT22;70933;44.692;37.776;2023-11-19T05:02:03;20.51;41.59
75799;DHT22;70933;44.692;37.776;2023-11-19T05:03:05;20.54;41.52
75799;DHT22;70933;44.692;37.776;2023-11-19T05:04:07;20.54;41.63
75799;DHT22;70933;44.692;37.776;2023-11-19T05:05:09;20.54;41.64
75799;DHT22;70933;44.692;37.776;2023-11-19T05:06:11;20.54;41.55
75799;DHT22;70933;44.692;37.776;2023-11-19T05:07:12;20.50;41.83
75799;DHT22;70933;44.692;37.776;2023-11-19T05:08:14;20.50;41.94
75799;DHT22;70933;44.692;37.776;2023-11-19T05:09:15;20.48;41.85
75799;DHT22;70933;44.692;37.776;2023-11-19T05:10:17;20.44;41.62
75799;DHT22;70933;44.692;37.776;2023-11-19T05:11:18;20.43;41.64
75799;DHT22;70933;44.692;37.776;2023-11-19T05:12:21;20.42;41.77
75799;DHT22;70933;44.692;37.776;2023-11-19T05:13:22;20.44;41.73
75799;DHT22;70933;44.692;37.776;2023-11-19T05:14:24;20.41;41.74
75799;DHT22;70933;44.692;37.776;2023-11-19T05:15:25;20.41;41.90
75799;DHT22;70933;44.692;37.776;2023-11-19T05:16:27;20.40;42.03
75799;DHT22;70933;44.692;37.776;2023-11-19T05:17:28;20.40;42.07
75799;DHT22;70933;44.692;37.776;2023-11-19T05:18:30;20.40;41.89
75799;DHT22;70933;44.692;37.776;2023-11-19T05:19:31;20.42;41.94
75799;DHT22;70933;44.692;37.776;2023-11-19T05:20:33;20.41;41.97
75799;DHT22;70933;44.692;37.776;2023-11-19T05:21:35;20.39;41.84
75799;DHT22;70933;44.692;37.776;2023-11-19T05:22:36;20.40;41.89
75799;DHT22;70933;44.692;37.776;2023-11-19T05:23:38;20.39;41.91
75799;DHT22;70933;44.692;37.776;2023-11-19T05:24:40;20.41;41.90
75799;DHT22;70933;44.692;37.776;2023-11-19T05:25:42;20.44;41.90
75799;DHT22;70933;44.692;37.776;2023-11-19T05:26:43;20.43;41.73
75799;DHT22;70933;44.692;37.776;2023-11-19T05:27:45;20.43;41.65
75799;DHT22;70933;44.692;37.776;2023-11-19T05:28:47;20.41;41.58
75799;DHT22;70933;44.692;37.776;2023-11-19T05:29:49;20.40;41.65
75799;DHT22;70933;44.692;37.776;2023-11-19T05:30:51;20.40;41.65
75799;DHT22;70933;44.692;37.776;2023-11-19T05:31:52;20.39;41.71
75799;DHT22;70933;44.692;37.776;2023-11-19T05:32:55;20.40;41.65
75799;DHT22;70933;44.692;37.776;2023-11-19T05:33:57;20.42;41.63
75799;DHT22;70933;44.692;37.776;2023-11-19T05:34:58;20.44;41.63
75799;DHT22;70933;44.692;37.776;2023-11-19T05:36:00;20.46;41.70
75799;DHT22;70933;44.692;37.776;2023-11-19T05:37:01;20.42;41.65
75799;DHT22;70933;44.692;37.776;2023-11-19T05:38:03;20.40;41.64
75799;DHT22;70933;44.692;37.776;2023-11-19T05:39:05;20.40;41.91
75799;DHT22;70933;44.692;37.776;2023-11-19T05:40:07;20.35;42.10
75799;DHT22;70933;44.692;37.776;2023-11-19T05:41:15;20.34;42.03
75799;DHT22;70933;44.692;37.776;2023-11-19T05:42:16;20.32;42.14
75799;DHT22;70933;44.692;37.776;2023-11-19T05:43:18;20.31;42.32
75799;DHT22;70933;44.692;37.776;2023-11-19T05:44:19;20.30;42.32
75799;DHT22;70933;44.692;37.776;2023-11-19T05:45:21;20.28;42.51
75799;DHT22;70933;44.692;37.776;2023-11-19T05:46:23;20.28;42.45
75799;DHT22;70933;44.692;37.776;2023-11-19T05:47:26;20.28;42.44
75799;DHT22;70933;44.692;37.776;2023-11-19T05:48:28;20.29;42.36
75799;DHT22;70933;44.692;37.776;2023-11-19T05:49:29;20.28;42.60
75799;DHT22;70933;44.692;37.776;2023-11-19T05:50:31;20.29;42.67
75799;DHT22;70933;44.692;37.776;2023-11-19T05:51:36;20.31;42.55
75799;DHT22;70933;44.692;37.776;2023-11-19T05:52:38;20.35;42.58
75799;DHT22;70933;44.692;37.776;2023-11-19T05:53:39;20.36;42.55
75799;DHT22;70933;44.692;37.776;2023-11-19T05:54:41;20.37;42.62
75799;DHT22;70933;44.692;37.776;2023-11-19T05:55:43;20.39;42.55
75799;DHT22;70933;44.692;37.776;2023-11-19T05:56:55;20.40;42.63
75799;DHT22;70933;44.692;37.776;2023-11-19T05:57:58;20.42;42.52
75799;DHT22;70933;44.692;37.776;2023-11-19T05:59:00;20.43;42.59
75799;DHT22;70933;44.692;37.776;2023-11-19T06:00:02;20.43;42.76
75799;DHT22;70933;44.692;37.776;2023-11-19T06:01:13;20.44;42.78
75799;DHT22;70933;44.692;37.776;2023-11-19T06:02:14;20.44;42.69
75799;DHT22;70933;44.692;37.776;2023-11-19T06:03:16;20.44;42.65
75799;DHT22;70933;44.692;37.776;2023-11-19T06:04:18;20.47;42.69
75799;DHT22;70933;44.692;37.776;2023-11-19T06:05:19;20.49;42.73
75799;DHT22;70933;44.692;37.776;2023-11-19T06:06:21;20.51;42.76
75799;DHT22;70933;44.692;37.776;2023-11-19T06:07:22;20.53;42.61
75799;DHT22;70933;44.692;37.776;2023-11-19T06:08:24;20.53;42.79
75799;DHT22;70933;44.692;37.776;2023-11-19T06:09:28;20.54;42.82
75799;DHT22;70933;44.692;37.776;2023-11-19T06:10:30;20.55;42.97
75799;DHT22;70933;44.692;37.776;2023-11-19T06:11:34;20.55;43.07
75799;DHT22;70933;44.692;37.776;2023-11-19T06:12:37;20.55;43.10
75799;DHT22;70933;44.692;37.776;2023-11-19T06:13:39;20.58;43.11
75799;DHT22;70933;44.692;37.776;2023-11-19T06:14:41;20.59;43.18
75799;DHT22;70933;44.692;37.776;2023-11-19T06:15:43;20.60;43.16
75799;DHT22;70933;44.692;37.776;2023-11-19T06:16:44;20.61;43.09
75799;DHT22;70933;44.692;37.776;2023-11-19T06:17:46;20.64;43.22
75799;DHT22;70933;44.692;37.776;2023-11-19T06:18:47;20.63;42.99
75799;DHT22;70933;44.692;37.776;2023-11-19T06:19:49;20.66;43.09
75799;DHT22;70933;44.692;37.776;2023-11-19T06:20:50;20.66;43.11
75799;DHT22;70933;44.692;37.776;2023-11-19T06:21:52;20.69;43.20
75799;DHT22;70933;44.692;37.776;2023-11-19T06:22:53;20.70;43.00
75799;DHT22;70933;44.692;37.776;2023-11-19T06:23:55;20.74;43.19
75799;DHT22;70933;44.692;37.776;2023-11-19T06:24:56;20.73;43.21
75799;DHT22;70933;44.692;37.776;2023-11-19T06:25:58;20.73;43.19
75799;DHT22;70933;44.692;37.776;2023-11-19T06:26:59;20.73;43.26